createdAt,value
2019-05-21T00:01:46.271Z,80.70
2019-05-21T00:04:27.954Z,80.60
2019-05-21T00:06:47.066Z,80.60
2019-05-21T00:09:16.776Z,80.50
2019-05-21T00:11:46.371Z,80.50
2019-05-21T00:14:15.982Z,80.60
2019-05-21T00:16:45.606Z,80.60
2019-05-21T00:19:15.238Z,80.80
2019-05-21T00:21:45.810Z,80.80
2019-05-21T00:24:15.342Z,81.10
2019-05-21T00:26:44.879Z,81.10
2019-05-21T00:29:50.355Z,81.40
2019-05-21T00:32:56.446Z,81.40
2019-05-21T00:36:02.218Z,81.70
2019-05-21T00:39:08.875Z,81.70
2019-05-21T00:42:01.056Z,81.80
2019-05-21T00:44:33.197Z,81.80
2019-05-21T00:47:03.536Z,82.10
2019-05-21T00:49:33.199Z,82.10
2019-05-21T00:52:08.820Z,82.50
2019-05-21T00:54:34.894Z,82.40
2019-05-21T00:57:04.573Z,82.70
2019-05-21T00:59:34.320Z,82.80
2019-05-21T01:02:04.222Z,82.80
2019-05-21T01:04:33.874Z,82.80
2019-05-21T01:07:03.546Z,82.80
2019-05-21T01:09:34.420Z,83.40
2019-05-21T01:12:04.180Z,82.50
2019-05-21T01:14:35.661Z,82.40
2019-05-21T01:17:05.399Z,82.40
2019-05-21T01:19:34.976Z,82.40
2019-05-21T01:22:04.792Z,82.40
2019-05-21T01:24:34.609Z,82.40
2019-05-21T01:27:04.170Z,83.40
2019-05-21T01:29:33.679Z,82.30
2019-05-21T01:32:03.486Z,82.50
2019-05-21T01:34:33.461Z,82.50
2019-05-21T01:37:03.308Z,82.50
2019-05-21T01:39:34.197Z,82.80
2019-05-21T01:42:03.803Z,82.70
2019-05-21T01:44:33.442Z,82.80
2019-05-21T01:47:03.114Z,82.80
2019-05-21T01:49:32.829Z,82.90
2019-05-21T01:52:02.424Z,82.90
2019-05-21T01:54:31.921Z,82.90
2019-05-21T01:57:01.595Z,82.90
2019-05-21T01:59:31.111Z,82.90
2019-05-21T02:02:00.829Z,83.00
2019-05-21T02:04:31.644Z,83.00
2019-05-21T02:07:00.487Z,83.00
2019-05-21T02:09:31.667Z,84.20
2019-05-21T02:12:01.422Z,83.30
2019-05-21T02:14:31.088Z,83.40
2019-05-21T02:17:00.701Z,83.50
2019-05-21T02:19:30.428Z,83.50
2019-05-21T02:22:00.276Z,83.80
2019-05-21T02:24:30.009Z,84.20
2019-05-21T02:26:59.584Z,84.10
2019-05-21T02:29:29.311Z,84.50
2019-05-21T02:31:58.888Z,84.50
2019-05-21T02:34:28.524Z,84.50
2019-05-21T02:36:58.150Z,84.60
2019-05-21T02:39:27.756Z,84.70
2019-05-21T02:41:57.406Z,84.90
2019-05-21T02:44:27.005Z,85.10
2019-05-21T02:46:56.633Z,85.10
2019-05-21T02:49:26.261Z,85.30
2019-05-21T02:51:55.896Z,85.40
2019-05-21T02:54:40.206Z,85.40
2019-05-21T02:56:58.210Z,85.50
2019-05-21T02:59:27.724Z,85.30
2019-05-21T03:02:02.067Z,85.20
2019-05-21T03:04:31.687Z,85.30
2019-05-21T03:07:19.438Z,85.00
2019-05-21T03:09:51.425Z,84.90
2019-05-21T03:12:22.451Z,84.80
2019-05-21T03:14:52.133Z,84.70
2019-05-21T03:17:21.778Z,84.50
2019-05-21T03:19:51.447Z,84.70
2019-05-21T03:22:20.994Z,84.50
2019-05-21T03:24:51.760Z,84.50
2019-05-21T03:27:20.469Z,84.50
2019-05-21T03:29:50.000Z,85.40
2019-05-21T03:32:20.051Z,84.40
2019-05-21T03:34:49.710Z,84.40
2019-05-21T03:37:19.380Z,85.10
2019-05-21T03:39:48.996Z,84.40
2019-05-21T03:42:18.604Z,84.60
2019-05-21T03:44:58.861Z,84.70
2019-05-21T03:47:20.050Z,84.80
2019-05-21T03:49:49.613Z,84.70
2019-05-21T03:52:19.362Z,85.00
2019-05-21T03:54:49.079Z,85.00
2019-05-21T03:57:18.535Z,85.00
2019-05-21T03:59:48.147Z,85.60
2019-05-21T04:02:17.725Z,85.20
2019-05-21T04:04:47.266Z,85.20
2019-05-21T04:07:17.334Z,85.20
2019-05-21T04:09:46.882Z,85.10
2019-05-21T04:12:17.688Z,85.20
2019-05-21T04:14:54.695Z,85.00
2019-05-21T04:17:34.581Z,85.00
2019-05-21T04:20:03.145Z,85.00
2019-05-21T04:22:32.738Z,85.10
2019-05-21T04:25:02.360Z,85.20
2019-05-21T04:27:32.001Z,85.30
2019-05-21T04:30:01.795Z,85.30
2019-05-21T04:32:32.412Z,86.20
2019-05-21T04:35:03.144Z,85.30
2019-05-21T04:37:31.892Z,85.50
2019-05-21T04:40:01.355Z,86.50
2019-05-21T04:42:30.914Z,85.60
2019-05-21T04:45:00.516Z,85.60
2019-05-21T04:47:30.065Z,85.80
2019-05-21T04:49:59.701Z,85.80
2019-05-21T04:52:30.310Z,85.80
2019-05-21T04:54:59.948Z,85.70
2019-05-21T04:57:29.581Z,85.60
2019-05-21T04:59:59.262Z,85.40
2019-05-21T05:02:28.906Z,85.50
2019-05-21T05:04:58.417Z,85.20
2019-05-21T05:07:28.962Z,85.00
2019-05-21T05:09:59.792Z,85.10
2019-05-21T05:12:29.352Z,85.00
2019-05-21T05:14:59.031Z,84.80
2019-05-21T05:17:28.823Z,84.70
2019-05-21T05:19:58.347Z,84.40
2019-05-21T05:22:27.884Z,84.20
2019-05-21T05:24:57.556Z,83.80
2019-05-21T05:27:27.103Z,83.70
2019-05-21T05:29:56.633Z,83.90
2019-05-21T05:32:26.216Z,83.30
2019-05-21T05:34:55.953Z,83.00
2019-05-21T05:37:25.593Z,82.70
2019-05-21T05:39:55.190Z,82.30
2019-05-21T05:42:25.674Z,81.90
2019-05-21T05:44:55.278Z,81.50
2019-05-21T05:47:24.941Z,81.10
2019-05-21T05:49:58.983Z,79.70
2019-05-21T05:52:29.762Z,80.00
2019-05-21T05:54:59.372Z,79.80
2019-05-21T05:57:30.413Z,79.00
2019-05-21T06:00:00.044Z,78.40
2019-05-21T06:02:29.688Z,78.50
2019-05-21T06:04:59.414Z,77.80
2019-05-21T06:07:29.153Z,77.20
2019-05-21T06:09:58.866Z,77.30
2019-05-21T06:12:29.805Z,76.70
2019-05-21T06:14:59.555Z,76.20
2019-05-21T06:17:29.398Z,75.40
2019-05-21T06:20:00.097Z,74.80
2019-05-21T06:22:29.887Z,73.50
2019-05-21T06:25:00.394Z,72.80
2019-05-21T06:27:30.189Z,72.20
2019-05-21T06:29:59.888Z,72.20
2019-05-21T06:32:30.864Z,72.40
2019-05-21T06:35:00.488Z,72.60
2019-05-21T06:37:31.961Z,71.90
2019-05-21T06:40:01.653Z,71.90
2019-05-21T06:42:31.290Z,71.30
2019-05-21T06:45:00.939Z,71.50
2019-05-21T06:49:04.645Z,70.20
2019-05-21T06:51:34.267Z,69.70
2019-05-21T06:54:04.004Z,69.40
2019-05-21T06:56:33.698Z,68.40
2019-05-21T06:59:04.790Z,67.10
2019-05-21T07:01:35.142Z,65.80
2019-05-21T07:04:04.871Z,66.00
2019-05-21T07:06:34.529Z,66.60
2019-05-21T07:09:05.398Z,67.30
2019-05-21T07:11:35.087Z,66.60
2019-05-21T07:14:04.729Z,65.70
2019-05-21T07:16:34.399Z,65.40
2019-05-21T07:19:04.041Z,65.40
2019-05-21T07:21:33.733Z,64.70
2019-05-21T07:24:04.874Z,65.10
2019-05-21T07:26:34.476Z,64.80
2019-05-21T07:29:04.122Z,64.60
2019-05-21T07:31:33.654Z,64.90
2019-05-21T07:34:04.932Z,64.30
2019-05-21T07:36:34.726Z,64.10
2019-05-21T07:39:06.466Z,64.10
2019-05-21T07:41:36.120Z,63.80
2019-05-21T07:44:05.853Z,62.80
2019-05-21T07:46:39.704Z,61.40
2019-05-21T07:49:11.502Z,60.00
2019-05-21T07:51:41.139Z,60.50
2019-05-21T07:54:12.351Z,61.20
2019-05-21T07:56:42.034Z,61.10
2019-05-21T07:59:11.721Z,59.90
2019-05-21T08:01:41.288Z,60.40
2019-05-21T08:04:10.872Z,60.00
2019-05-21T08:06:40.482Z,60.30
2019-05-21T08:09:14.213Z,59.20
2019-05-21T08:11:41.454Z,59.20
2019-05-21T08:14:11.316Z,59.80
2019-05-21T08:16:40.987Z,58.80
2019-05-21T08:19:11.248Z,58.80
2019-05-21T08:21:40.937Z,59.10
2019-05-21T08:24:10.577Z,59.20
2019-05-21T08:26:40.254Z,58.20
2019-05-21T08:29:09.877Z,57.50
2019-05-21T08:31:39.623Z,57.70
2019-05-21T08:34:09.309Z,57.50
2019-05-21T08:36:40.195Z,55.90
2019-05-21T08:39:10.632Z,56.00
2019-05-21T08:41:40.722Z,56.20
2019-05-21T08:44:10.370Z,55.90
2019-05-21T08:46:42.733Z,55.40
2019-05-21T08:49:12.343Z,55.80
2019-05-21T08:51:44.734Z,55.40
2019-05-21T08:54:18.006Z,53.00
2019-05-21T08:56:47.713Z,52.20
2019-05-21T08:59:17.472Z,52.70
2019-05-21T09:01:47.276Z,53.20
2019-05-21T09:04:17.031Z,50.70
2019-05-21T09:06:46.685Z,51.90
2019-05-21T09:09:17.855Z,50.90
2019-05-21T09:11:47.568Z,51.60
2019-05-21T09:14:17.214Z,53.00
2019-05-21T09:16:47.612Z,51.70
2019-05-21T09:19:17.230Z,52.00
2019-05-21T09:21:46.795Z,52.10
2019-05-21T09:24:16.360Z,52.70
2019-05-21T09:26:46.137Z,51.70
2019-05-21T09:29:15.767Z,51.90
2019-05-21T09:31:45.346Z,49.90
2019-05-21T09:34:15.074Z,49.60
2019-05-21T09:36:44.722Z,50.20
2019-05-21T09:39:17.636Z,49.50
2019-05-21T09:41:47.209Z,48.50
2019-05-21T09:44:17.145Z,48.10
2019-05-21T09:46:48.181Z,48.00
2019-05-21T09:49:18.954Z,46.40
2019-05-21T09:51:48.671Z,46.80
2019-05-21T09:54:18.453Z,47.10
2019-05-21T09:56:48.203Z,45.70
2019-05-21T09:59:22.208Z,46.40
2019-05-21T10:02:08.426Z,47.40
2019-05-21T10:04:38.166Z,43.50
2019-05-21T10:07:07.896Z,42.10
2019-05-21T10:09:37.561Z,41.90
2019-05-21T10:12:07.448Z,42.60
2019-05-21T10:14:37.101Z,43.50
2019-05-21T10:17:06.876Z,43.60
2019-05-21T10:19:36.562Z,43.50
2019-05-21T10:22:06.487Z,44.10
2019-05-21T10:24:36.302Z,44.90
2019-05-21T10:27:06.075Z,42.60
2019-05-21T10:29:35.863Z,43.00
2019-05-21T10:32:05.614Z,42.50
2019-05-21T10:34:35.334Z,42.70
2019-05-21T10:37:05.221Z,43.40
2019-05-21T10:39:34.914Z,43.30
2019-05-21T10:42:05.090Z,44.20
2019-05-21T10:44:36.216Z,44.40
2019-05-21T10:47:06.067Z,44.20
2019-05-21T10:49:35.659Z,44.10
2019-05-21T10:52:05.588Z,42.80
2019-05-21T10:54:36.293Z,40.60
2019-05-21T10:57:05.995Z,40.50
2019-05-21T10:59:35.667Z,39.20
2019-05-21T11:02:18.966Z,40.10
2019-05-21T11:04:50.261Z,40.30
2019-05-21T11:07:20.701Z,41.30
2019-05-21T11:09:50.424Z,41.30
2019-05-21T11:12:23.074Z,41.50
2019-05-21T11:14:52.657Z,39.50
2019-05-21T11:17:24.338Z,39.20
2019-05-21T11:19:53.992Z,39.80
2019-05-21T11:22:25.159Z,39.90
2019-05-21T11:24:54.801Z,39.60
2019-05-21T11:27:24.522Z,40.00
2019-05-21T11:29:54.164Z,39.10
2019-05-21T11:32:25.410Z,38.90
2019-05-21T11:34:55.163Z,37.40
2019-05-21T11:37:24.769Z,39.20
2019-05-21T11:39:54.473Z,40.20
2019-05-21T11:42:24.259Z,38.70
2019-05-21T11:44:53.740Z,39.40
2019-05-21T11:47:23.397Z,40.50
2019-05-21T11:49:53.182Z,39.60
2019-05-21T11:52:22.879Z,41.20
2019-05-21T11:54:55.763Z,40.10
2019-05-21T11:57:23.669Z,39.70
2019-05-21T11:59:53.478Z,40.90
2019-05-21T12:02:23.184Z,40.70
2019-05-21T12:04:52.889Z,40.20
2019-05-21T12:07:22.501Z,40.20
2019-05-21T12:09:52.680Z,40.90
2019-05-21T12:12:22.472Z,39.60
2019-05-21T12:14:52.293Z,39.90
2019-05-21T12:17:22.005Z,42.60
2019-05-21T12:19:51.863Z,41.50
2019-05-21T12:22:21.489Z,39.90
2019-05-21T12:24:51.059Z,40.90
2019-05-21T12:27:20.779Z,40.60
2019-05-21T12:29:50.482Z,39.30
2019-05-21T12:32:21.302Z,39.80
2019-05-21T12:34:51.080Z,40.30
2019-05-21T12:37:21.725Z,39.60
2019-05-21T12:39:57.272Z,39.20
2019-05-21T12:42:26.968Z,39.00
2019-05-21T12:44:56.816Z,38.60
2019-05-21T12:47:26.351Z,41.70
2019-05-21T12:49:55.986Z,39.40
2019-05-21T12:52:25.642Z,38.60
2019-05-21T12:54:55.340Z,38.40
2019-05-21T12:57:25.076Z,37.80
2019-05-21T12:59:55.628Z,37.70
2019-05-21T13:02:25.417Z,38.50
2019-05-21T13:04:55.562Z,39.40
2019-05-21T13:07:25.275Z,38.80
2019-05-21T13:09:54.948Z,38.60
2019-05-21T13:12:24.802Z,38.80
2019-05-21T13:14:54.456Z,38.50
2019-05-21T13:17:25.342Z,37.70
2019-05-21T13:19:55.102Z,37.10
2019-05-21T13:22:24.781Z,38.20
2019-05-21T13:24:54.590Z,38.80
2019-05-21T13:27:25.327Z,38.60
2019-05-21T13:29:56.029Z,39.00
2019-05-21T13:32:26.202Z,38.30
2019-05-21T13:34:55.860Z,37.00
2019-05-21T13:37:25.598Z,35.30
2019-05-21T13:39:55.146Z,32.80
2019-05-21T13:42:24.916Z,32.20
2019-05-21T13:44:54.660Z,31.80
2019-05-21T13:47:24.255Z,32.40
2019-05-21T13:49:54.042Z,32.20
2019-05-21T13:52:23.694Z,30.90
2019-05-21T13:54:53.490Z,30.00
2019-05-21T13:57:23.187Z,29.90
2019-05-21T13:59:52.856Z,30.20
2019-05-21T14:02:23.512Z,31.50
2019-05-21T14:04:53.205Z,31.00
2019-05-21T14:07:23.807Z,32.20
2019-05-21T14:10:13.407Z,32.70
2019-05-21T14:12:25.287Z,32.20
2019-05-21T14:14:55.118Z,31.10
2019-05-21T14:17:24.860Z,31.20
2019-05-21T14:19:54.543Z,31.70
2019-05-21T14:22:24.388Z,32.10
2019-05-21T14:24:54.041Z,33.00
2019-05-21T14:27:24.390Z,33.20
2019-05-21T14:29:54.174Z,33.00
2019-05-21T14:32:23.715Z,32.80
2019-05-21T14:35:01.272Z,33.20
2019-05-21T14:37:24.746Z,32.30
2019-05-21T14:39:54.439Z,33.00
2019-05-21T14:42:25.152Z,33.40
2019-05-21T14:44:54.820Z,32.50
2019-05-21T14:47:24.703Z,32.00
2019-05-21T14:49:54.485Z,30.00
2019-05-21T14:52:24.239Z,30.50
2019-05-21T14:56:11.902Z,31.60
2019-05-21T14:58:41.651Z,31.50
2019-05-21T15:01:11.457Z,32.60
2019-05-21T15:03:41.092Z,33.00
2019-05-21T15:06:10.909Z,34.00
2019-05-21T15:08:40.697Z,34.70
2019-05-21T15:11:10.494Z,35.60
2019-05-21T15:13:41.188Z,36.70
2019-05-21T15:16:10.745Z,36.80
2019-05-21T15:18:40.437Z,37.40
2019-05-21T15:21:14.792Z,37.60
2019-05-21T15:23:45.525Z,37.10
2019-05-21T15:26:17.014Z,37.30
2019-05-21T15:28:46.614Z,37.10
2019-05-21T15:31:16.655Z,37.20
2019-05-21T15:33:46.365Z,38.00
2019-05-21T15:36:16.162Z,38.80
2019-05-21T15:38:50.896Z,38.40
2019-05-21T15:41:17.080Z,37.90
2019-05-21T15:43:46.843Z,39.80
2019-05-21T15:46:16.575Z,39.60
2019-05-21T15:48:46.260Z,39.70
2019-05-21T15:51:17.493Z,39.90
2019-05-21T15:53:47.206Z,40.40
2019-05-21T15:56:18.099Z,40.80
2019-05-21T15:58:47.753Z,41.00
2019-05-21T16:01:17.563Z,42.40
2019-05-21T16:03:47.299Z,41.50
2019-05-21T16:06:16.913Z,40.50
2019-05-21T16:08:46.652Z,39.00
2019-05-21T16:11:28.072Z,38.60
2019-05-21T16:13:48.632Z,39.00
2019-05-21T16:16:18.414Z,39.40
2019-05-21T16:18:47.986Z,40.30
2019-05-21T16:21:17.684Z,40.20
2019-05-21T16:23:47.385Z,40.30
2019-05-21T16:26:17.494Z,40.30
2019-05-21T16:28:48.046Z,40.10
2019-05-21T16:31:17.812Z,39.90
2019-05-21T16:33:47.596Z,40.10
2019-05-21T16:36:17.377Z,40.20
2019-05-21T16:38:47.007Z,40.50
2019-05-21T16:41:16.771Z,40.80
2019-05-21T16:43:46.468Z,40.90
2019-05-21T16:46:16.060Z,40.50
2019-05-21T16:48:45.696Z,39.70
2019-05-21T16:51:15.335Z,39.90
2019-05-21T16:53:45.109Z,40.20
2019-05-21T16:56:14.984Z,41.00
2019-05-21T16:58:44.713Z,41.00
2019-05-21T17:01:16.108Z,40.90
2019-05-21T17:03:58.997Z,40.90
2019-05-21T17:06:18.358Z,40.70
2019-05-21T17:08:47.962Z,40.40
2019-05-21T17:11:17.499Z,40.60
2019-05-21T17:13:47.124Z,40.10
2019-05-21T17:16:16.795Z,40.70
2019-05-21T17:18:46.595Z,40.80
2019-05-21T17:21:16.203Z,41.30
2019-05-21T17:23:45.908Z,41.50
2019-05-21T17:26:15.608Z,42.00
2019-05-21T17:28:45.342Z,42.30
2019-05-21T17:31:15.039Z,42.10
2019-05-21T17:33:44.732Z,41.90
2019-05-21T17:36:14.532Z,41.40
2019-05-21T17:38:44.533Z,41.40
2019-05-21T17:41:14.272Z,41.30
2019-05-21T17:43:44.073Z,41.00
2019-05-21T17:46:13.769Z,41.40
2019-05-21T17:48:43.532Z,41.00
2019-05-21T17:51:14.321Z,41.70
2019-05-21T17:53:43.126Z,41.70
2019-05-21T17:56:12.707Z,41.50
2019-05-21T17:58:42.345Z,41.70
2019-05-21T18:01:13.677Z,41.80
2019-05-21T18:03:43.688Z,42.30
2019-05-21T18:06:14.611Z,42.20
2019-05-21T18:08:44.520Z,41.90
2019-05-21T18:11:15.250Z,41.70
2019-05-21T18:13:48.054Z,42.00
2019-05-21T18:16:19.824Z,42.20
2019-05-21T18:18:49.986Z,42.70
2019-05-21T18:21:20.528Z,42.50
2019-05-21T18:23:50.499Z,42.60
2019-05-21T18:26:20.345Z,43.10
2019-05-21T18:28:49.997Z,43.00
2019-05-21T18:31:21.551Z,42.80
2019-05-21T18:33:51.116Z,43.10
2019-05-21T18:36:20.825Z,43.10
2019-05-21T18:38:50.557Z,43.80
2019-05-21T18:41:20.318Z,43.20
2019-05-21T18:43:50.352Z,43.40
2019-05-21T18:46:20.071Z,43.90
2019-05-21T18:48:49.795Z,43.60
2019-05-21T18:51:20.674Z,44.10
2019-05-21T18:53:49.533Z,44.50
2019-05-21T18:56:19.097Z,44.50
2019-05-21T18:58:48.891Z,44.80
2019-05-21T19:01:19.043Z,45.40
2019-05-21T19:03:49.350Z,45.30
2019-05-21T19:06:19.265Z,45.80
2019-05-21T19:08:49.140Z,45.70
2019-05-21T19:11:18.963Z,46.20
2019-05-21T19:13:48.679Z,46.40
2019-05-21T19:16:20.093Z,46.30
2019-05-21T19:18:49.702Z,46.40
2019-05-21T19:21:19.438Z,46.80
2019-05-21T19:23:49.082Z,46.70
2019-05-21T19:26:18.965Z,46.90
2019-05-21T19:28:48.569Z,46.70
2019-05-21T19:31:18.219Z,46.70
2019-05-21T19:33:47.998Z,47.20
2019-05-21T19:36:17.771Z,46.90
2019-05-21T19:38:47.436Z,46.80
2019-05-21T19:41:21.503Z,46.70
2019-05-21T19:43:51.980Z,46.80
2019-05-21T19:46:25.084Z,46.90
2019-05-21T19:48:55.278Z,46.80
2019-05-21T19:51:25.347Z,47.00
2019-05-21T19:53:55.258Z,47.00
2019-05-21T19:56:25.488Z,47.30
2019-05-21T19:58:55.292Z,47.20
2019-05-21T20:01:26.681Z,47.50
2019-05-21T20:03:56.660Z,47.40
2019-05-21T20:06:27.045Z,47.70
2019-05-21T20:08:57.560Z,47.80
2019-05-21T20:11:27.397Z,47.70
2019-05-21T20:13:57.301Z,48.20
2019-05-21T20:16:27.342Z,48.10
2019-05-21T20:18:57.109Z,48.30
2019-05-21T20:21:27.756Z,48.40
2019-05-21T20:23:58.218Z,48.30
2019-05-21T20:26:30.225Z,48.30
2019-05-21T20:29:00.042Z,48.50
2019-05-21T20:31:30.414Z,48.40
2019-05-21T20:34:01.042Z,48.50
2019-05-21T20:36:32.434Z,48.70
2019-05-21T20:39:02.298Z,49.00
2019-05-21T20:41:34.194Z,49.00
2019-05-21T20:44:04.381Z,49.50
2019-05-21T20:46:34.137Z,49.60
2019-05-21T20:49:03.915Z,49.80
2019-05-21T20:51:33.854Z,50.20
2019-05-21T20:54:04.369Z,50.40
2019-05-21T20:56:34.644Z,50.70
2019-05-21T20:59:04.414Z,51.00
2019-05-21T21:01:34.451Z,51.10
2019-05-21T21:04:04.939Z,51.30
2019-05-21T21:06:36.317Z,51.60
2019-05-21T21:09:10.242Z,52.30
2019-05-21T21:11:41.253Z,52.40
2019-05-21T21:14:18.085Z,52.80
2019-05-21T21:16:45.956Z,52.80
2019-05-21T21:19:15.958Z,53.00
2019-05-21T21:21:45.731Z,53.00
2019-05-21T21:24:16.194Z,53.00
2019-05-21T21:26:47.213Z,53.60
2019-05-21T21:29:17.283Z,53.50
2019-05-21T21:31:47.287Z,53.80
2019-05-21T21:34:18.745Z,53.60
2019-05-21T21:36:53.003Z,54.10
2019-05-21T21:39:20.803Z,53.80
2019-05-21T21:41:50.491Z,53.90
2019-05-21T21:44:33.717Z,54.10
2019-05-21T21:46:55.212Z,54.10
2019-05-21T21:49:25.548Z,54.30
2019-05-21T21:51:55.272Z,54.70
2019-05-21T21:54:24.994Z,55.10
2019-05-21T21:56:54.634Z,54.90
2019-05-21T21:59:24.343Z,55.30
2019-05-21T22:01:59.793Z,55.60
2019-05-21T22:04:32.249Z,55.70
2019-05-21T22:07:03.250Z,55.60
2019-05-21T22:09:33.646Z,56.40
2019-05-21T22:12:05.179Z,57.00
2019-05-21T22:14:49.646Z,57.10
2019-05-21T22:17:07.210Z,57.40
2019-05-21T22:19:38.303Z,57.60
2019-05-21T22:22:08.323Z,58.20
2019-05-21T22:24:37.905Z,58.50
2019-05-21T22:27:07.735Z,59.00
2019-05-21T22:29:37.833Z,59.30
2019-05-21T22:32:07.508Z,59.40
2019-05-21T22:34:37.116Z,59.80
2019-05-21T22:37:08.486Z,60.10
2019-05-21T22:39:39.680Z,60.80
2019-05-21T22:42:09.769Z,60.90
2019-05-21T22:44:39.633Z,61.30
2019-05-21T22:47:10.175Z,61.70
2019-05-21T22:49:39.845Z,61.90
2019-05-21T22:52:09.531Z,62.50
2019-05-21T22:54:39.162Z,63.20
2019-05-21T22:57:08.804Z,63.40
2019-05-21T22:59:39.392Z,64.20
2019-05-21T23:02:10.654Z,64.40
2019-05-21T23:04:40.361Z,64.60
2019-05-21T23:07:12.079Z,65.10
2019-05-21T23:09:41.847Z,65.40
2019-05-21T23:12:11.478Z,65.80
2019-05-21T23:14:41.188Z,66.20
2019-05-21T23:17:12.674Z,66.50
2019-05-21T23:19:50.298Z,66.70
2019-05-21T23:22:23.593Z,67.20
2019-05-21T23:24:53.366Z,67.60
2019-05-21T23:27:24.663Z,68.00
2019-05-21T23:29:54.434Z,68.10
2019-05-21T23:32:24.939Z,68.40
2019-05-21T23:34:57.936Z,68.70
2019-05-21T23:37:29.132Z,68.90
2019-05-21T23:39:59.913Z,69.00
2019-05-21T23:42:32.757Z,68.90
2019-05-21T23:45:02.834Z,69.00
2019-05-21T23:47:33.945Z,69.00
2019-05-21T23:50:04.921Z,69.00
2019-05-21T23:52:37.237Z,69.10
2019-05-21T23:55:09.214Z,69.00
2019-05-21T23:57:39.627Z,69.30
